createdAt,value
2022-10-22T00:02:30.267Z,11.2
2022-10-22T00:05:30.196Z,11.2
2022-10-22T00:08:30.268Z,11.2
2022-10-22T00:11:30.196Z,11.2
2022-10-22T00:14:30.197Z,11.2
2022-10-22T00:17:30.212Z,11.2
2022-10-22T00:20:30.228Z,11.2
2022-10-22T00:23:30.207Z,11.2
2022-10-22T00:26:30.203Z,11.2
2022-10-22T00:29:30.209Z,11.28
2022-10-22T00:32:30.206Z,11.29
2022-10-22T00:35:30.212Z,11.36
2022-10-22T00:38:30.231Z,11.45
2022-10-22T00:41:30.219Z,11.43
2022-10-22T00:44:30.216Z,11.45
2022-10-22T00:47:30.233Z,11.45
2022-10-22T00:50:30.244Z,11.51
2022-10-22T00:53:30.248Z,11.51
2022-10-22T00:56:30.287Z,11.51
2022-10-22T00:59:30.278Z,11.49
2022-10-22T01:02:30.291Z,11.56
2022-10-22T01:05:30.304Z,11.55
2022-10-22T01:08:30.328Z,11.55
2022-10-22T01:11:30.336Z,11.48
2022-10-22T01:14:30.384Z,11.47
2022-10-22T01:17:30.377Z,11.47
2022-10-22T01:20:30.394Z,11.47
2022-10-22T01:23:30.417Z,11.46
2022-10-22T01:26:30.433Z,11.47
2022-10-22T01:29:30.450Z,11.39
2022-10-22T01:32:30.493Z,11.39
2022-10-22T01:35:30.521Z,11.39
2022-10-22T01:38:30.497Z,11.4
2022-10-22T01:41:30.512Z,11.33
2022-10-22T01:44:30.549Z,11.32
2022-10-22T01:47:30.553Z,11.32
2022-10-22T01:50:30.596Z,11.32
2022-10-22T01:53:30.588Z,11.25
2022-10-22T01:56:30.604Z,11.25
2022-10-22T01:59:30.661Z,11.25
2022-10-22T02:02:30.631Z,11.26
2022-10-22T02:05:30.647Z,11.26
2022-10-22T02:08:30.695Z,11.19
2022-10-22T02:11:30.687Z,11.19
2022-10-22T02:14:30.705Z,11.27
2022-10-22T02:17:30.719Z,11.27
2022-10-22T02:20:30.736Z,11.28
2022-10-22T02:23:30.752Z,11.28
2022-10-22T02:26:30.790Z,11.28
2022-10-22T02:29:30.787Z,11.2
2022-10-22T02:32:30.796Z,11.2
2022-10-22T02:35:30.812Z,11.12
2022-10-22T02:38:30.831Z,11.11
2022-10-22T02:41:30.849Z,11.03
2022-10-22T02:44:30.893Z,11.04
2022-10-22T02:47:30.881Z,11.04
2022-10-22T02:50:30.891Z,10.98
2022-10-22T02:53:30.918Z,11
2022-10-22T02:56:30.946Z,11
2022-10-22T02:59:30.971Z,11.01
2022-10-22T03:02:31.017Z,11.02
2022-10-22T03:05:31.019Z,11.02
2022-10-22T03:08:31.108Z,11.03
2022-10-22T03:11:31.069Z,11.04
2022-10-22T03:14:31.098Z,11.03
2022-10-22T03:17:31.122Z,10.96
2022-10-22T03:20:31.160Z,10.96
2022-10-22T03:23:31.154Z,10.88
2022-10-22T03:26:31.169Z,10.88
2022-10-22T03:29:31.198Z,10.82
2022-10-22T03:32:31.214Z,10.82
2022-10-22T03:35:31.241Z,10.82
2022-10-22T03:38:31.282Z,10.82
2022-10-22T03:41:31.272Z,10.76
2022-10-22T03:44:31.301Z,10.76
2022-10-22T03:47:31.330Z,10.69
2022-10-22T03:50:31.347Z,10.7
2022-10-22T03:53:31.375Z,10.64
2022-10-22T03:56:31.430Z,10.57
2022-10-22T03:59:31.431Z,10.57
2022-10-22T04:02:31.445Z,10.49
2022-10-22T04:05:31.470Z,10.49
2022-10-22T04:08:31.565Z,10.56
2022-10-22T04:11:31.506Z,10.51
2022-10-22T04:14:31.551Z,10.57
2022-10-22T04:17:31.548Z,10.59
2022-10-22T04:20:31.566Z,10.66
2022-10-22T04:23:31.592Z,10.67
2022-10-22T04:26:31.605Z,10.61
2022-10-22T04:29:31.627Z,10.69
2022-10-22T04:32:31.659Z,10.69
2022-10-22T04:35:31.668Z,10.77
2022-10-22T04:38:31.700Z,10.84
2022-10-22T04:41:31.726Z,10.9
2022-10-22T04:44:31.751Z,10.85
2022-10-22T04:47:31.770Z,10.85
2022-10-22T04:50:31.820Z,10.91
2022-10-22T04:53:31.825Z,10.91
2022-10-22T04:56:31.851Z,10.91
2022-10-22T04:59:31.866Z,10.91
2022-10-22T05:02:31.886Z,10.91
2022-10-22T05:05:31.899Z,10.98
2022-10-22T05:08:31.976Z,10.98
2022-10-22T05:11:31.939Z,10.98
2022-10-22T05:14:31.957Z,10.97
2022-10-22T05:17:31.976Z,10.9
2022-10-22T05:20:31.996Z,10.89
2022-10-22T05:23:32.007Z,10.83
2022-10-22T05:26:32.067Z,10.81
2022-10-22T05:29:32.063Z,10.74
2022-10-22T05:32:32.087Z,10.67
2022-10-22T05:35:32.114Z,10.66
2022-10-22T05:38:32.135Z,10.66
2022-10-22T05:41:32.172Z,10.66
2022-10-22T05:44:32.213Z,10.66
2022-10-22T05:47:32.211Z,10.6
2022-10-22T05:50:32.234Z,10.54
2022-10-22T05:53:32.252Z,10.55
2022-10-22T05:56:32.276Z,10.47
2022-10-22T05:59:32.294Z,10.47
2022-10-22T06:02:32.389Z,10.41
2022-10-22T06:05:32.333Z,10.34
2022-10-22T06:08:32.361Z,10.42
2022-10-22T06:11:34.134Z,10.42
2022-10-22T06:14:32.390Z,10.48
2022-10-22T06:17:32.428Z,10.42
2022-10-22T06:20:32.472Z,10.49
2022-10-22T06:23:32.473Z,10.49
2022-10-22T06:26:32.496Z,10.5
2022-10-22T06:29:32.531Z,10.5
2022-10-22T06:32:32.552Z,10.51
2022-10-22T06:35:32.571Z,10.58
2022-10-22T06:38:32.621Z,10.59
2022-10-22T06:41:32.620Z,10.66
2022-10-22T06:44:32.640Z,10.66
2022-10-22T06:47:32.666Z,10.73
2022-10-22T06:50:32.683Z,10.8
2022-10-22T06:53:32.708Z,10.87
2022-10-22T06:56:32.749Z,10.94
2022-10-22T06:59:32.746Z,11.02
2022-10-22T07:02:32.762Z,11.02
2022-10-22T07:05:32.801Z,11.02
2022-10-22T07:08:32.886Z,11.08
2022-10-22T07:11:32.841Z,11.16
2022-10-22T07:14:32.893Z,11.16
2022-10-22T07:17:32.940Z,11.23
2022-10-22T07:20:32.922Z,11.3
2022-10-22T07:23:32.944Z,11.37
2022-10-22T07:26:32.967Z,11.52
2022-10-22T07:29:32.999Z,11.59
2022-10-22T07:32:33.047Z,11.73
2022-10-22T07:35:33.040Z,11.8
2022-10-22T07:38:33.064Z,11.86
2022-10-22T07:41:33.086Z,11.92
2022-10-22T07:44:33.112Z,12
2022-10-22T07:47:33.136Z,12.06
2022-10-22T07:50:33.203Z,12.04
2022-10-22T07:53:33.145Z,12.07
2022-10-22T07:56:33.169Z,12.05
2022-10-22T07:59:33.186Z,12.08
2022-10-22T08:02:33.203Z,12.11
2022-10-22T08:05:33.205Z,12.36
2022-10-22T08:08:33.271Z,12.51
2022-10-22T08:11:33.227Z,12.4
2022-10-22T08:14:33.228Z,12.28
2022-10-22T08:17:33.223Z,12.24
2022-10-22T08:20:33.232Z,12.14
2022-10-22T08:23:33.238Z,12.05
2022-10-22T08:26:33.262Z,11.97
2022-10-22T08:29:33.237Z,12.05
2022-10-22T08:32:33.242Z,12.22
2022-10-22T08:35:33.247Z,12.61
2022-10-22T08:38:33.244Z,12.76
2022-10-22T08:41:33.251Z,12.73
2022-10-22T08:44:33.268Z,12.79
2022-10-22T08:47:33.251Z,13.04
2022-10-22T08:50:33.258Z,13
2022-10-22T08:53:33.258Z,12.93
2022-10-22T08:56:33.255Z,12.96
2022-10-22T08:59:33.267Z,13.08
2022-10-22T09:02:33.291Z,13.07
2022-10-22T09:05:33.271Z,12.94
2022-10-22T09:08:33.323Z,13.15
2022-10-22T09:11:33.269Z,13.18
2022-10-22T09:14:33.278Z,13.14
2022-10-22T09:17:33.275Z,13.17
2022-10-22T09:20:33.297Z,13.21
2022-10-22T09:23:33.274Z,13.26
2022-10-22T09:26:33.281Z,13.21
2022-10-22T09:29:33.280Z,13.31
2022-10-22T09:32:33.279Z,13.54
2022-10-22T09:35:33.280Z,13.51
2022-10-22T09:38:33.314Z,13.22
2022-10-22T09:41:33.280Z,13.12
2022-10-22T09:44:33.283Z,13.33
2022-10-22T09:47:42.183Z,13.33
2022-10-22T09:50:33.287Z,13.24
2022-10-22T09:53:33.296Z,12.97
2022-10-22T09:56:33.318Z,13.02
2022-10-22T09:59:33.294Z,12.95
2022-10-22T10:02:38.439Z,12.87
2022-10-22T10:05:33.293Z,12.77
2022-10-22T10:08:33.385Z,12.85
2022-10-22T10:11:33.294Z,12.91
2022-10-22T10:14:33.330Z,12.82
2022-10-22T10:17:33.302Z,12.7
2022-10-22T10:20:33.308Z,12.7
2022-10-22T10:23:33.398Z,12.83
2022-10-22T10:26:33.306Z,12.7
2022-10-22T10:29:33.343Z,12.86
2022-10-22T10:32:33.340Z,12.75
2022-10-22T10:35:33.314Z,12.66
2022-10-22T10:38:33.314Z,12.55
2022-10-22T10:41:33.308Z,12.37
2022-10-22T10:44:33.320Z,12.28
2022-10-22T10:47:33.323Z,12.17
2022-10-22T10:50:33.351Z,12.23
2022-10-22T10:53:33.319Z,12.19
2022-10-22T10:56:34.400Z,12.27
2022-10-22T10:59:33.320Z,12.27
2022-10-22T11:02:33.330Z,12.56
2022-10-22T11:05:33.326Z,12.73
2022-10-22T11:08:33.384Z,12.78
2022-10-22T11:11:33.328Z,12.75
2022-10-22T11:14:33.333Z,12.63
2022-10-22T11:17:33.329Z,12.77
2022-10-22T11:20:33.339Z,12.59
2022-10-22T11:23:33.336Z,12.46
2022-10-22T11:26:33.365Z,12.44
2022-10-22T11:29:33.343Z,12.07
2022-10-22T11:32:33.347Z,12.05
2022-10-22T11:35:33.344Z,12.04
2022-10-22T11:38:34.921Z,12.12
2022-10-22T11:41:33.350Z,11.97
2022-10-22T11:44:33.377Z,11.94
2022-10-22T11:47:33.351Z,12
2022-10-22T11:50:33.357Z,12.04
2022-10-22T11:53:33.379Z,12.16
2022-10-22T11:56:33.367Z,12.11
2022-10-22T11:59:33.370Z,12.19
2022-10-22T12:02:33.401Z,12.15
2022-10-22T12:05:33.374Z,12.06
2022-10-22T12:08:33.420Z,12.24
2022-10-22T12:11:33.381Z,12.11
2022-10-22T12:14:33.381Z,12.15
2022-10-22T12:17:33.392Z,12.18
2022-10-22T12:20:33.425Z,12.2
2022-10-22T12:23:33.398Z,12.27
2022-10-22T12:26:33.392Z,12.27
2022-10-22T12:29:33.402Z,12.16
2022-10-22T12:32:33.396Z,12.16
2022-10-22T12:35:33.403Z,12.19
2022-10-22T12:38:33.436Z,12.2
2022-10-22T12:41:33.413Z,12.25
2022-10-22T12:44:33.412Z,12.3
2022-10-22T12:47:33.414Z,12.33
2022-10-22T12:50:33.411Z,12.33
2022-10-22T12:53:33.415Z,12.29
2022-10-22T12:56:33.441Z,12.25
2022-10-22T12:59:33.421Z,12.28
2022-10-22T13:02:33.432Z,12.27
2022-10-22T13:05:33.430Z,12.28
2022-10-22T13:08:33.435Z,12.23
2022-10-22T13:11:33.437Z,12.19
2022-10-22T13:14:33.464Z,12.23
2022-10-22T13:17:33.448Z,12.27
2022-10-22T13:20:33.453Z,12.27
2022-10-22T13:23:33.458Z,12.25
2022-10-22T13:26:33.452Z,12.28
2022-10-22T13:29:33.456Z,12.36
2022-10-22T13:32:33.492Z,12.18
2022-10-22T13:35:33.455Z,12.09
2022-10-22T13:38:33.462Z,12.07
2022-10-22T13:41:33.519Z,12.06
2022-10-22T13:44:33.471Z,12.05
2022-10-22T13:47:33.474Z,12.03
2022-10-22T13:50:33.521Z,11.88
2022-10-22T13:53:33.493Z,11.81
2022-10-22T13:56:33.496Z,11.74
2022-10-22T13:59:33.508Z,11.72
2022-10-22T14:02:33.509Z,11.62
2022-10-22T14:05:33.510Z,11.79
2022-10-22T14:08:33.607Z,11.67
2022-10-22T14:12:50.866Z,11.56
2022-10-22T14:15:49.379Z,11.65
2022-10-22T14:18:49.397Z,11.65
2022-10-22T14:21:49.418Z,11.74
2022-10-22T14:24:49.450Z,11.81
2022-10-22T14:27:49.436Z,11.85
2022-10-22T14:30:49.463Z,11.89
2022-10-22T14:33:49.483Z,11.81
2022-10-22T14:36:49.504Z,11.82
2022-10-22T14:39:49.552Z,11.87
2022-10-22T14:42:49.564Z,11.88
2022-10-22T14:45:49.570Z,11.87
2022-10-22T14:48:49.575Z,11.82
2022-10-22T14:51:49.584Z,11.84
2022-10-22T14:54:49.616Z,11.92
2022-10-22T14:57:49.637Z,11.92
2022-10-22T15:00:49.734Z,11.96
2022-10-22T15:03:49.686Z,11.94
2022-10-22T15:06:49.699Z,11.93
2022-10-22T15:09:49.725Z,11.96
2022-10-22T15:12:49.740Z,11.96
2022-10-22T15:15:49.761Z,12
2022-10-22T15:18:49.793Z,12.19
2022-10-22T15:21:49.800Z,12.27
2022-10-22T15:24:49.828Z,12.3
2022-10-22T15:27:50.432Z,12.11
2022-10-22T15:30:49.869Z,11.92
2022-10-22T15:33:49.891Z,11.9
2022-10-22T15:36:49.929Z,11.82
2022-10-22T15:39:49.926Z,11.79
2022-10-22T15:42:49.948Z,11.79
2022-10-22T15:45:49.989Z,11.7
2022-10-22T15:48:50.010Z,11.6
2022-10-22T15:51:50.031Z,11.57
2022-10-22T15:54:50.073Z,11.5
2022-10-22T15:57:50.075Z,11.47
2022-10-22T16:00:50.157Z,11.46
2022-10-22T16:03:50.105Z,11.51
2022-10-22T16:06:50.120Z,11.47
2022-10-22T16:09:50.133Z,11.47
2022-10-22T16:12:50.187Z,11.34
2022-10-22T16:15:50.197Z,11.31
2022-10-22T16:18:50.208Z,11.22
2022-10-22T16:21:50.227Z,11.23
2022-10-22T16:24:50.265Z,11.18
2022-10-22T16:27:50.284Z,11.18
2022-10-22T16:30:50.348Z,11.13
2022-10-22T16:33:50.522Z,11.11
2022-10-22T16:36:50.342Z,11.1
2022-10-22T16:39:50.369Z,11.1
2022-10-22T16:42:50.389Z,11.08
2022-10-22T16:45:50.421Z,11.1
2022-10-22T16:48:50.455Z,11.08
2022-10-22T16:51:50.450Z,11.12
2022-10-22T16:54:50.468Z,11.08
2022-10-22T16:57:50.475Z,11.16
2022-10-22T17:00:57.581Z,11.18
2022-10-22T17:03:57.399Z,11.19
2022-10-22T17:06:57.402Z,11.19
2022-10-22T17:09:57.407Z,11.18
2022-10-22T17:12:57.433Z,11.18
2022-10-22T17:15:57.472Z,11.09
2022-10-22T17:18:57.488Z,11.08
2022-10-22T17:21:57.525Z,11.02
2022-10-22T17:24:57.528Z,11.11
2022-10-22T17:27:57.552Z,11.11
2022-10-22T17:30:57.576Z,11.11
2022-10-22T17:33:57.583Z,11.14
2022-10-22T17:36:57.620Z,11.19
2022-10-22T17:39:57.668Z,11.22
2022-10-22T17:42:57.667Z,11.25
2022-10-22T17:45:57.696Z,11.23
2022-10-22T17:48:57.719Z,11.27
2022-10-22T17:51:57.878Z,11.25
2022-10-22T17:54:57.763Z,11.29
2022-10-22T17:57:57.811Z,11.24
2022-10-22T18:00:57.899Z,11.28
2022-10-22T18:03:57.838Z,11.23
2022-10-22T18:06:57.832Z,11.27
2022-10-22T18:09:57.862Z,11.18
2022-10-22T18:12:57.899Z,11.23
2022-10-22T18:15:57.948Z,11.21
2022-10-22T18:18:57.937Z,11.2
2022-10-22T18:21:57.953Z,11.18
2022-10-22T18:24:57.970Z,11.18
2022-10-22T18:27:58.005Z,11.17
2022-10-22T18:30:58.046Z,11.13
2022-10-22T18:33:58.076Z,11.13
2022-10-22T18:36:58.070Z,11.2
2022-10-22T18:39:58.094Z,11.12
2022-10-22T18:42:58.125Z,11.11
2022-10-22T18:45:58.166Z,11.16
2022-10-22T18:48:58.169Z,11.16
2022-10-22T18:51:58.201Z,11.14
2022-10-22T18:54:58.192Z,11.1
2022-10-22T18:57:58.203Z,11.09
2022-10-22T19:00:58.281Z,11.09
2022-10-22T19:03:58.295Z,11.08
2022-10-22T19:06:58.414Z,11.08
2022-10-22T19:09:58.319Z,11.06
2022-10-22T19:12:58.302Z,11.06
2022-10-22T19:15:58.331Z,11.06
2022-10-22T19:18:58.334Z,11.02
2022-10-22T19:21:58.355Z,11.03
2022-10-22T19:24:58.384Z,11.05
2022-10-22T19:27:58.438Z,11.05
2022-10-22T19:30:58.443Z,11.05
2022-10-22T19:33:58.457Z,11.05
2022-10-22T19:36:58.484Z,11.03
2022-10-22T19:39:58.504Z,11.02
2022-10-22T19:42:58.516Z,11
2022-10-22T19:45:58.569Z,11.04
2022-10-22T19:48:58.557Z,11.01
2022-10-22T19:51:58.579Z,11
2022-10-22T19:54:58.606Z,11.01
2022-10-22T19:57:58.625Z,11
2022-10-22T20:00:58.691Z,11
2022-10-22T20:03:58.694Z,11
2022-10-22T20:06:58.676Z,10.97
2022-10-22T20:09:58.696Z,10.95
2022-10-22T20:12:58.722Z,10.9
2022-10-22T20:15:58.762Z,10.94
2022-10-22T20:18:58.777Z,10.93
2022-10-22T20:24:58.835Z,10.89
2022-10-22T20:27:58.865Z,10.9
2022-10-22T20:30:58.907Z,10.91
2022-10-22T20:33:58.909Z,10.83
2022-10-22T20:36:58.913Z,10.81
2022-10-22T20:39:58.948Z,10.81
2022-10-22T20:42:58.945Z,10.79
2022-10-22T20:45:58.973Z,10.78
2022-10-22T20:48:58.990Z,10.77
2022-10-22T20:51:59.008Z,10.76
2022-10-22T20:54:59.020Z,10.76
2022-10-22T20:57:59.064Z,10.74
2022-10-22T21:00:59.244Z,10.74
2022-10-22T21:03:59.076Z,10.74
2022-10-22T21:06:59.103Z,10.69
2022-10-22T21:09:59.129Z,10.64
2022-10-22T21:12:59.156Z,10.6
2022-10-22T21:15:59.217Z,10.52
2022-10-22T21:18:59.202Z,10.55
2022-10-22T21:21:59.229Z,10.5
2022-10-22T21:24:59.234Z,10.51
2022-10-22T21:27:59.247Z,10.46
2022-10-22T21:30:59.271Z,10.47
2022-10-22T21:33:59.302Z,10.49
2022-10-22T21:36:59.288Z,10.47
2022-10-22T21:39:59.296Z,10.47
2022-10-22T21:42:59.308Z,10.42
2022-10-22T21:46:00.177Z,10.37
2022-10-22T21:48:59.325Z,10.39
2022-10-22T21:51:59.363Z,10.34
2022-10-22T21:54:59.361Z,10.3
2022-10-22T21:57:59.367Z,10.27
2022-10-22T22:00:59.430Z,10.19
2022-10-22T22:03:59.403Z,10.16
2022-10-22T22:06:59.424Z,10.19
2022-10-22T22:09:59.455Z,10.08
2022-10-22T22:12:59.451Z,10.07
2022-10-22T22:15:59.479Z,10.1
2022-10-22T22:18:59.570Z,10.06
2022-10-22T22:21:59.487Z,10.02
2022-10-22T22:24:59.507Z,9.97
2022-10-22T22:27:59.545Z,9.93
2022-10-22T22:30:59.563Z,9.89
2022-10-22T22:33:59.535Z,9.86
2022-10-22T22:36:59.551Z,9.83
2022-10-22T22:39:59.548Z,9.79
2022-10-22T22:42:59.565Z,9.75
2022-10-22T22:45:59.690Z,9.71
2022-10-22T22:48:59.620Z,9.67
2022-10-22T22:51:59.631Z,9.69
2022-10-22T22:54:59.594Z,9.66
2022-10-22T22:57:59.604Z,9.61
2022-10-22T23:00:59.632Z,9.58
2022-10-22T23:03:59.642Z,9.53
2022-10-22T23:06:59.612Z,9.62
2022-10-22T23:09:59.626Z,9.66
2022-10-22T23:12:59.628Z,9.74
2022-10-22T23:15:59.655Z,9.69
2022-10-22T23:18:59.655Z,9.67
2022-10-22T23:21:59.673Z,9.59
2022-10-22T23:24:59.661Z,9.53
2022-10-22T23:27:59.674Z,9.55
2022-10-22T23:30:59.697Z,9.51
2022-10-22T23:33:59.703Z,9.52
2022-10-22T23:36:59.714Z,9.54
2022-10-22T23:39:59.737Z,9.49
2022-10-22T23:42:59.710Z,9.5
2022-10-22T23:45:59.735Z,9.51
2022-10-22T23:48:59.731Z,9.51
2022-10-22T23:51:59.731Z,9.46
2022-10-22T23:54:59.739Z,9.46
2022-10-22T23:57:59.769Z,9.4
